Alessandro F — IBVQ — position and weather

sailwx.info

Track history (hours):
 
Tides and Currents Weather Stations Pressure Air Temp Water Temp Dewpoint Dewpoint Depression Visibility Wind Speed Wind Dir Waves Ship Positions

Alessandro F

Last reported at 2018-Jan-09 14:45 UTC. Time now 2018-Jan-20 05:27 UTC.
Position N 34°25' E 025°21'.
Warning: this ship's position is 10 days out of date.

Length 100 m; draft 6.9 m.

Type: Ship (hazmat cat A). MMSI: 247046400.

Date/timePositionNaut miles runAvg speedWind from/ knotsBaromVisibWave heightAir tempDewpointWater temp
2018-Jan-09 14:45N 34°25' E 025°21'413.7
2018-Jan-09 14:27N 34°27' E 025°17'613.8
2018-Jan-09 14:00N 34°32' E 025°12'714.1
2018-Jan-09 13:31N 34°36' E 025°06'  
2018-Jan-06 19:00N 36°34' E 015°01'4913.6
2018-Jan-06 15:25N 36°50' E 014°03'713.9
2018-Jan-06 14:56N 36°53' E 013°56'24812.5
2018-Jan-05 19:08N 38°54' E 009°21'1 9.2
2018-Jan-05 19:01N 38°55' E 009°21'5 9.1
2018-Jan-05 18:30N 38°59' E 009°18'4 9.0
2018-Jan-05 18:00N 39°03' E 009°15'5 9.5
2018-Jan-05 17:29N 39°05' E 009°10'4 9.1
2018-Jan-05 17:00N 39°08' E 009°05'2 4.8
2018-Jan-05 16:30N 39°09' E 009°03'0 0.0
2018-Jan-05 16:00N 39°09' E 009°03'0 0.0
2018-Jan-05 15:30N 39°09' E 009°03'0 0.0
2018-Jan-05 15:00N 39°09' E 009°03'0 0.0
2018-Jan-05 14:30N 39°09' E 009°03'0 0.0
2018-Jan-05 14:00N 39°09' E 009°03'0 0.0
2018-Jan-05 13:29N 39°09' E 009°03'0 0.0
2018-Jan-05 13:00N 39°09' E 009°03'0 0.0
2018-Jan-05 12:30N 39°09' E 009°03'0 0.0
2018-Jan-05 12:01N 39°09' E 009°03'0 0.0
2018-Jan-05 11:30N 39°09' E 009°03'0 0.0
2018-Jan-05 11:01N 39°09' E 009°03'0 0.0
2018-Jan-05 10:30N 39°09' E 009°03'0 0.0
2018-Jan-05 10:01N 39°09' E 009°03'0 0.0
2018-Jan-05 09:30N 39°09' E 009°03'0 0.0
2018-Jan-05 09:01N 39°09' E 009°03'0 0.0
2018-Jan-05 08:30N 39°09' E 009°03'0 0.0
2018-Jan-05 08:01N 39°09' E 009°03'0 0.0
2018-Jan-05 07:30N 39°09' E 009°03'0 0.0
2018-Jan-05 07:00N 39°09' E 009°03'0 0.0
2018-Jan-05 06:30N 39°09' E 009°03'0 0.0
2018-Jan-05 06:00N 39°09' E 009°03'0 0.0
2018-Jan-05 05:30N 39°09' E 009°03'0 0.0
2018-Jan-05 05:00N 39°09' E 009°03'0 0.0
2018-Jan-05 04:30N 39°09' E 009°03'0 0.0
2018-Jan-05 04:00N 39°09' E 009°03'0 0.0
2018-Jan-05 03:31N 39°09' E 009°03'0 0.0
2018-Jan-05 03:00N 39°09' E 009°03'0 0.0
2018-Jan-05 02:30N 39°09' E 009°03'0 0.0
2018-Jan-05 02:00N 39°09' E 009°03'0 0.0
2018-Jan-05 01:30N 39°09' E 009°03'0 0.0
2018-Jan-05 01:00N 39°09' E 009°03'0 0.0
2018-Jan-05 00:30N 39°09' E 009°03'0 0.0
2018-Jan-04 23:59N 39°09' E 009°03'0 0.0
2018-Jan-04 23:30N 39°09' E 009°03'0 0.0
2018-Jan-04 23:00N 39°09' E 009°03'0 0.0
2018-Jan-04 22:30N 39°09' E 009°03'0 0.0
2018-Jan-04 22:00N 39°09' E 009°03'0 0.0
2018-Jan-04 21:30N 39°09' E 009°03'0 0.0
2018-Jan-04 21:00N 39°09' E 009°03'0 0.0
2018-Jan-04 20:30N 39°09' E 009°03'0 0.0
2018-Jan-04 20:00N 39°09' E 009°03'0 0.0
2018-Jan-04 19:31N 39°09' E 009°03'0 0.0
2018-Jan-04 19:00N 39°09' E 009°03'0 0.0
2018-Jan-04 18:30N 39°09' E 009°03'0 0.0
2018-Jan-04 18:00N 39°09' E 009°03'0 0.0
2018-Jan-04 17:30N 39°09' E 009°03'0 0.0
2018-Jan-04 17:00N 39°09' E 009°03'0 0.0
2018-Jan-04 16:30N 39°09' E 009°03'0 0.0
2018-Jan-04 16:00N 39°09' E 009°03'0 0.0
2018-Jan-04 15:30N 39°09' E 009°03'0 0.0
2018-Jan-04 14:59N 39°09' E 009°03'0 0.0
2018-Jan-04 14:30N 39°09' E 009°03'0 0.0
2018-Jan-04 14:00N 39°09' E 009°03'0 0.0
2018-Jan-04 13:30N 39°09' E 009°03'0 0.0
2018-Jan-04 13:01N 39°09' E 009°03'0 0.0
2018-Jan-04 12:30N 39°09' E 009°03'0 0.0
2018-Jan-04 12:00N 39°09' E 009°03'0 0.0
2018-Jan-04 11:30N 39°09' E 009°03'1 1.7
2018-Jan-04 11:00N 39°09' E 009°04'5 9.9
2018-Jan-04 10:30N 39°06' E 009°09'4 8.6
2018-Jan-04 10:01N 39°04' E 009°14'4 8.6
2018-Jan-04 09:30N 39°02' E 009°19'  
Track history (hours):
 
Tides and Currents Weather Stations Pressure Air Temp Water Temp Dewpoint Dewpoint Depression Visibility Wind Speed Wind Dir Waves Ship Positions

Alessandro F

Last reported at 2018-Jan-09 14:45 UTC. Time now 2018-Jan-20 05:27 UTC.
Position N 34°25' E 025°21'.
Warning: this ship's position is 10 days out of date.

Length 100 m; draft 6.9 m.

Type: Ship (hazmat cat A). MMSI: 247046400.

Date/timePositionNaut miles runAvg speedWind from/ knotsBaromVisibWave heightAir tempDewpointWater temp
2018-Jan-09 14:45N 34°25' E 025°21'413.7
2018-Jan-09 14:27N 34°27' E 025°17'613.8
2018-Jan-09 14:00N 34°32' E 025°12'714.1
2018-Jan-09 13:31N 34°36' E 025°06'  
2018-Jan-06 19:00N 36°34' E 015°01'4913.6
2018-Jan-06 15:25N 36°50' E 014°03'713.9
2018-Jan-06 14:56N 36°53' E 013°56'24812.5
2018-Jan-05 19:08N 38°54' E 009°21'1 9.2
2018-Jan-05 19:01N 38°55' E 009°21'5 9.1
2018-Jan-05 18:30N 38°59' E 009°18'4 9.0
2018-Jan-05 18:00N 39°03' E 009°15'5 9.5
2018-Jan-05 17:29N 39°05' E 009°10'4 9.1
2018-Jan-05 17:00N 39°08' E 009°05'2 4.8
2018-Jan-05 16:30N 39°09' E 009°03'0 0.0
2018-Jan-05 16:00N 39°09' E 009°03'0 0.0
2018-Jan-05 15:30N 39°09' E 009°03'0 0.0
2018-Jan-05 15:00N 39°09' E 009°03'0 0.0
2018-Jan-05 14:30N 39°09' E 009°03'0 0.0
2018-Jan-05 14:00N 39°09' E 009°03'0 0.0
2018-Jan-05 13:29N 39°09' E 009°03'0 0.0
2018-Jan-05 13:00N 39°09' E 009°03'0 0.0
2018-Jan-05 12:30N 39°09' E 009°03'0 0.0
2018-Jan-05 12:01N 39°09' E 009°03'0 0.0
2018-Jan-05 11:30N 39°09' E 009°03'0 0.0
2018-Jan-05 11:01N 39°09' E 009°03'0 0.0
2018-Jan-05 10:30N 39°09' E 009°03'0 0.0
2018-Jan-05 10:01N 39°09' E 009°03'0 0.0
2018-Jan-05 09:30N 39°09' E 009°03'0 0.0
2018-Jan-05 09:01N 39°09' E 009°03'0 0.0
2018-Jan-05 08:30N 39°09' E 009°03'0 0.0
2018-Jan-05 08:01N 39°09' E 009°03'0 0.0
2018-Jan-05 07:30N 39°09' E 009°03'0 0.0
2018-Jan-05 07:00N 39°09' E 009°03'0 0.0
2018-Jan-05 06:30N 39°09' E 009°03'0 0.0
2018-Jan-05 06:00N 39°09' E 009°03'0 0.0
2018-Jan-05 05:30N 39°09' E 009°03'0 0.0
2018-Jan-05 05:00N 39°09' E 009°03'0 0.0
2018-Jan-05 04:30N 39°09' E 009°03'0 0.0
2018-Jan-05 04:00N 39°09' E 009°03'0 0.0
2018-Jan-05 03:31N 39°09' E 009°03'0 0.0
2018-Jan-05 03:00N 39°09' E 009°03'0 0.0
2018-Jan-05 02:30N 39°09' E 009°03'0 0.0
2018-Jan-05 02:00N 39°09' E 009°03'0 0.0
2018-Jan-05 01:30N 39°09' E 009°03'0 0.0
2018-Jan-05 01:00N 39°09' E 009°03'0 0.0
2018-Jan-05 00:30N 39°09' E 009°03'0 0.0
2018-Jan-04 23:59N 39°09' E 009°03'0 0.0
2018-Jan-04 23:30N 39°09' E 009°03'0 0.0
2018-Jan-04 23:00N 39°09' E 009°03'0 0.0
2018-Jan-04 22:30N 39°09' E 009°03'0 0.0
2018-Jan-04 22:00N 39°09' E 009°03'0 0.0
2018-Jan-04 21:30N 39°09' E 009°03'0 0.0
2018-Jan-04 21:00N 39°09' E 009°03'0 0.0
2018-Jan-04 20:30N 39°09' E 009°03'0 0.0
2018-Jan-04 20:00N 39°09' E 009°03'0 0.0
2018-Jan-04 19:31N 39°09' E 009°03'0 0.0
2018-Jan-04 19:00N 39°09' E 009°03'0 0.0
2018-Jan-04 18:30N 39°09' E 009°03'0 0.0
2018-Jan-04 18:00N 39°09' E 009°03'0 0.0
2018-Jan-04 17:30N 39°09' E 009°03'0 0.0
2018-Jan-04 17:00N 39°09' E 009°03'0 0.0
2018-Jan-04 16:30N 39°09' E 009°03'0 0.0
2018-Jan-04 16:00N 39°09' E 009°03'0 0.0
2018-Jan-04 15:30N 39°09' E 009°03'0 0.0
2018-Jan-04 14:59N 39°09' E 009°03'0 0.0
2018-Jan-04 14:30N 39°09' E 009°03'0 0.0
2018-Jan-04 14:00N 39°09' E 009°03'0 0.0
2018-Jan-04 13:30N 39°09' E 009°03'0 0.0
2018-Jan-04 13:01N 39°09' E 009°03'0 0.0
2018-Jan-04 12:30N 39°09' E 009°03'0 0.0
2018-Jan-04 12:00N 39°09' E 009°03'0 0.0
2018-Jan-04 11:30N 39°09' E 009°03'1 1.7
2018-Jan-04 11:00N 39°09' E 009°04'5 9.9
2018-Jan-04 10:30N 39°06' E 009°09'4 8.6
2018-Jan-04 10:01N 39°04' E 009°14'4 8.6
2018-Jan-04 09:30N 39°02' E 009°19'  

Dump ship's entire track history